Riverside, North Carolina
Current Conditions -  °F | °C
As of 5:55 AM on Wednesday 22 Oct 2014 (Local Time) from KRHP Reporting Station
Scattered Clouds Scattered Clouds  
Wind Chill: 39°   Ceiling: Unl
Heat Index: 43°   Visibility: 10mi
Dew Point: 38°   Wind: 6mph
Humidity: 81%   Direction: 60°ENE
Pressure: 30.09"   Gusts: NA
Location:  35.1737°N, 83.4215°W
Report Text: KRHP 220955Z AUTO 06005KT 10SM SCT034 06/03 A3009 RMK AO2 T00610031
Loading
Personal Weather Stations






























Interactive Weather Map
Tropical Storm Tracking
New forecast layout! Learn more

10-Day Weather Forecast

Advertisements
Track Severe Weather on mobile